Time;durP1;ratioP1;P1;durP2;ratioP2;P2;SDS_P1;SDS_P2;PMS_P1;PMS_P2;Temp;Humidity;BMP_temperature;BMP_pressure;BME280_temperature;BME280_humidity;BME280_pressure;Samples;Min_cycle;Max_cycle;Signal;HPM_P1;HPM_P2
2022/08/29 00:01:39;;;;;;;;;;;;;;;19.96;100.00;97367.06;5033557;28;19999;-76
2022/08/29 00:04:04;;;;;;;;;;;;;;;19.95;100.00;97368.91;5033441;28;19992;-76
2022/08/29 00:06:30;;;;;;;;;;;;;;;19.91;100.00;97372.94;5050182;28;19913;-77
2022/08/29 00:08:55;;;;;;;;;;;;;;;19.93;100.00;97365.47;5033413;28;19939;-76
2022/08/29 00:11:21;;;;;;;;;;;;;;;19.98;100.00;97368.59;5033003;28;19952;-76
2022/08/29 00:13:46;;;;;;;;;;;;;;;20.00;100.00;97369.28;5049999;28;19912;-76
2022/08/29 00:16:12;;;;;;;;;;;;;;;19.95;100.00;97368.91;5033162;28;19920;-77
2022/08/29 00:18:37;;;;;;;;;;;;;;;19.90;100.00;97368.50;5050166;28;19916;-77
2022/08/29 00:21:03;;;;;;;;;;;;;;;19.89;100.00;97374.13;5033319;28;20376;-76
2022/08/29 00:23:29;;;;;;;;;;;;;;;19.81;100.00;97372.16;5033089;28;19912;-76
2022/08/29 00:25:55;;;;;;;;;;;;;;;19.76;100.00;97360.94;5033345;28;19995;-76
2022/08/29 00:28:20;;;;;;;;;;;;;;;19.76;100.00;97376.38;5033128;28;19909;-75
2022/08/29 00:30:46;;;;;;;;;;;;;;;19.73;100.00;97368.53;5049937;28;19913;-76
2022/08/29 00:33:11;;;;;;;;;;;;;;;19.71;100.00;97374.13;5033055;28;19913;-76
2022/08/29 00:35:37;;;;;;;;;;;;;;;19.70;100.00;97369.72;5033127;28;19917;-76
2022/08/29 00:38:03;;;;;;;;;;;;;;;19.65;100.00;97376.63;5029834;28;19909;-76
2022/08/29 00:40:30;;;;;;;;;;;;;;;19.67;100.00;97377.31;5032917;28;20296;-76
2022/08/29 00:42:56;;;;;;;;;;;;;;;19.68;100.00;97382.59;5032948;28;19970;-76
2022/08/29 00:45:22;;;;;;;;;;;;;;;19.67;100.00;97377.31;5049608;28;19908;-75
2022/08/29 00:47:53;;;;;;;;;;;;;;;19.58;100.00;97381.81;5029856;28;19909;-76
2022/08/29 00:50:24;;;;;;;;;;;;;;;19.60;100.00;97385.22;5033321;28;20353;-76
2022/08/29 00:52:49;;;;;;;;;;;;;;;19.57;100.00;97380.09;5033492;28;19919;-76
2022/08/29 00:55:18;;;;;;;;;;;;;;;19.58;100.00;97389.09;5032854;28;19912;-76
2022/08/29 00:57:45;;;;;;;;;;;;;;;19.54;100.00;97391.25;5044459;28;20372;-76
2022/08/29 01:00:11;;;;;;;;;;;;;;;19.41;100.00;97385.38;5032838;28;19915;-76
2022/08/29 01:02:39;;;;;;;;;;;;;;;19.37;100.00;97392.94;5032799;28;19964;-75
2022/08/29 01:05:05;;;;;;;;;;;;;;;19.37;100.00;97397.50;5029892;28;19913;-75
2022/08/29 01:07:31;;;;;;;;;;;;;;;19.31;100.00;97392.69;5032842;28;20007;-76
2022/08/29 01:09:57;;;;;;;;;;;;;;;19.30;100.00;97390.97;5049801;28;19946;-75
2022/08/29 01:12:22;;;;;;;;;;;;;;;19.23;100.00;97389.88;5036466;28;19978;-76
2022/08/29 01:14:52;;;;;;;;;;;;;;;19.24;100.00;97394.28;5053265;28;19923;-76
2022/08/29 01:17:25;;;;;;;;;;;;;;;19.28;100.00;97398.41;5036420;28;19920;-75
2022/08/29 01:19:53;;;;;;;;;;;;;;;19.24;100.00;97394.28;5036734;28;19943;-76
2022/08/29 01:22:34;;;;;;;;;;;;;;;19.22;100.00;97402.59;5052863;28;19924;-77
2022/08/29 01:25:00;;;;;;;;;;;;;;;19.15;100.00;97396.06;5052995;28;19912;-77
2022/08/29 01:27:27;;;;;;;;;;;;;;;19.10;100.00;97397.53;5036192;28;20007;-75
2022/08/29 01:29:53;;;;;;;;;;;;;;;19.14;100.00;97399.78;5047835;28;20422;-77
2022/08/29 01:32:18;;;;;;;;;;;;;;;19.06;100.00;97401.53;5034208;28;19923;-76
2022/08/29 01:34:44;;;;;;;;;;;;;;;19.01;100.00;97407.41;5034958;28;19920;-76
2022/08/29 01:37:10;;;;;;;;;;;;;;;18.97;100.00;97402.44;5052567;28;19912;-77
2022/08/29 01:39:37;;;;;;;;;;;;;;;18.94;100.00;97409.88;5035998;28;19919;-76
2022/08/29 01:42:08;;;;;;;;;;;;;;;18.98;100.00;97409.59;5035960;28;19913;-77
2022/08/29 01:44:34;;;;;;;;;;;;;;;18.98;100.00;97409.59;5036090;28;19913;-77
2022/08/29 01:47:00;;;;;;;;;;;;;;;18.94;100.00;97407.19;5036154;28;19920;-77
2022/08/29 01:49:26;;;;;;;;;;;;;;;18.91;100.00;97406.63;5035780;28;20285;-77
2022/08/29 01:51:52;;;;;;;;;;;;;;;18.85;100.00;97405.38;5035840;28;20380;-77
2022/08/29 01:54:17;;;;;;;;;;;;;;;18.72;100.00;97398.56;5052421;28;19913;-77
2022/08/29 01:56:45;;;;;;;;;;;;;;;18.78;100.00;97403.38;5035604;28;19936;-77
2022/08/29 01:59:12;;;;;;;;;;;;;;;18.70;100.00;97401.41;5035769;28;19919;-76
2022/08/29 02:01:39;;;;;;;;;;;;;;;18.67;100.00;97401.69;5052194;28;20011;-77
2022/08/29 02:04:04;;;;;;;;;;;;;;;18.66;100.00;97410.84;5052221;28;19916;-77
2022/08/29 02:06:30;;;;;;;;;;;;;;;18.68;100.00;97408.84;5035488;28;20303;-77
2022/08/29 02:08:55;;;;;;;;;;;;;;;18.62;100.00;97409.44;5035394;28;19923;-77
2022/08/29 02:11:21;;;;;;;;;;;;;;;18.68;100.00;97413.41;5032744;28;20398;-76
2022/08/29 02:13:48;;;;;;;;;;;;;;;18.78;100.00;97419.66;5052074;28;19913;-76
2022/08/29 02:16:14;;;;;;;;;;;;;;;18.78;100.00;97414.22;5031969;28;20404;-77
2022/08/29 02:18:41;;;;;;;;;;;;;;;18.80;100.00;97414.91;5035138;28;19951;-77
2022/08/29 02:21:07;;;;;;;;;;;;;;;18.77;100.00;97418.78;5035202;28;19912;-77
2022/08/29 02:23:33;;;;;;;;;;;;;;;18.72;100.00;97410.25;5052006;28;19963;-77
2022/08/29 02:25:58;;;;;;;;;;;;;;;18.77;100.00;97424.22;5051898;28;19936;-77
2022/08/29 02:28:23;;;;;;;;;;;;;;;18.74;100.00;97420.94;5035036;28;19913;-77
2022/08/29 02:30:51;;;;;;;;;;;;;;;18.74;100.00;97429.94;5051887;28;19919;-77
2022/08/29 02:33:16;;;;;;;;;;;;;;;18.80;100.00;97440.16;5051816;28;20011;-76
2022/08/29 02:35:42;;;;;;;;;;;;;;;18.80;100.00;97434.75;5051438;28;20007;-76
2022/08/29 02:38:07;;;;;;;;;;;;;;;18.77;100.00;97429.63;5035030;28;19912;-76
2022/08/29 02:40:33;;;;;;;;;;;;;;;18.74;100.00;97442.63;5033073;28;19962;-76
2022/08/29 02:42:58;;;;;;;;;;;;;;;18.67;100.00;97441.53;5032433;28;19936;-77
2022/08/29 02:45:24;;;;;;;;;;;;;;;18.66;100.00;97448.78;5034650;28;19939;-76
2022/08/29 02:47:50;;;;;;;;;;;;;;;18.73;100.00;97449.06;5034744;28;19920;-76
2022/08/29 02:50:15;;;;;;;;;;;;;;;18.71;100.00;97451.03;5034749;28;19916;-77
2022/08/29 02:52:41;;;;;;;;;;;;;;;18.74;100.00;97448.03;5052417;28;19924;-76
2022/08/29 02:55:08;;;;;;;;;;;;;;;18.63;100.00;97448.22;5051327;28;19916;-77
2022/08/29 02:57:33;;;;;;;;;;;;;;;18.60;100.00;97457.50;5051271;28;19913;-77
2022/08/29 02:59:58;;;;;;;;;;;;;;;18.53;100.00;97458.22;5034687;28;20343;-77
2022/08/29 03:02:24;;;;;;;;;;;;;;;18.49;100.00;97452.25;5051209;28;20027;-77
2022/08/29 03:04:49;;;;;;;;;;;;;;;18.47;100.00;97453.38;5050933;28;20003;-76
2022/08/29 03:07:15;;;;;;;;;;;;;;;18.40;100.00;97453.94;5033368;28;19909;-77
2022/08/29 03:09:40;;;;;;;;;;;;;;;18.38;100.00;97455.09;5034071;28;19917;-76
2022/08/29 03:12:05;;;;;;;;;;;;;;;18.31;100.00;97453.97;5031981;28;19919;-76
2022/08/29 03:14:31;;;;;;;;;;;;;;;18.35;100.00;97458.97;5031231;28;19917;-77
2022/08/29 03:16:56;;;;;;;;;;;;;;;18.39;100.00;97456.81;5050857;28;20016;-77
2022/08/29 03:19:22;;;;;;;;;;;;;;;18.30;100.00;97460.41;5034048;28;20430;-77
2022/08/29 03:21:47;;;;;;;;;;;;;;;18.30;100.00;97463.09;5034041;28;19913;-77
2022/08/29 03:24:13;;;;;;;;;;;;;;;18.38;100.00;97461.38;5034098;28;19920;-77
2022/08/29 03:26:39;;;;;;;;;;;;;;;18.41;100.00;97471.06;5050615;28;19920;-77
2022/08/29 03:29:04;;;;;;;;;;;;;;;18.48;100.00;97471.34;5034024;28;19912;-77
2022/08/29 03:31:29;;;;;;;;;;;;;;;18.43;100.00;97471.75;5033850;28;19913;-77
2022/08/29 03:33:55;;;;;;;;;;;;;;;18.42;100.00;97475.50;5049714;28;19913;-76
2022/08/29 03:36:20;;;;;;;;;;;;;;;18.43;100.00;97479.88;5032783;28;19917;-77
2022/08/29 03:38:46;;;;;;;;;;;;;;;18.39;100.00;97482.03;5033701;28;19963;-77
2022/08/29 03:41:18;;;;;;;;;;;;;;;18.37;100.00;97481.31;5050568;28;19917;-76
2022/08/29 03:43:43;;;;;;;;;;;;;;;18.37;100.00;97485.88;5048243;28;19960;-76
2022/08/29 03:46:08;;;;;;;;;;;;;;;18.37;100.00;97491.28;5030533;28;19920;-77
2022/08/29 03:48:34;;;;;;;;;;;;;;;18.36;100.00;97495.03;5050258;28;19963;-77
2022/08/29 03:50:59;;;;;;;;;;;;;;;18.30;100.00;97495.59;5033757;28;20376;-75
2022/08/29 03:53:25;;;;;;;;;;;;;;;18.21;100.00;97499.19;5033583;28;20380;-76
2022/08/29 03:55:51;;;;;;;;;;;;;;;18.05;100.00;97501.59;5049951;28;19920;-75
2022/08/29 03:58:16;;;;;;;;;;;;;;;18.05;100.00;97510.56;5033493;28;19912;-75
2022/08/29 04:00:42;;;;;;;;;;;;;;;18.07;100.00;97515.84;5049824;28;20026;-76
2022/08/29 04:03:07;;;;;;;;;;;;;;;18.00;100.00;97509.25;5050157;28;20400;-77
2022/08/29 04:05:33;;;;;;;;;;;;;;;18.01;100.00;97508.28;5050123;28;19912;-77
2022/08/29 04:07:58;;;;;;;;;;;;;;;18.08;100.00;97514.84;5032517;28;19944;-76
2022/08/29 04:10:31;;;;;;;;;;;;;;;18.08;100.00;97520.25;5050081;28;19938;-77
2022/08/29 04:12:57;;;;;;;;;;;;;;;18.13;100.00;97520.69;5031796;28;19935;-76
2022/08/29 04:15:22;;;;;;;;;;;;;;;18.13;100.00;97523.38;5029789;28;19925;-76
2022/08/29 04:17:49;;;;;;;;;;;;;;;18.24;100.00;97517.84;5030725;28;19982;-77
2022/08/29 04:20:14;;;;;;;;;;;;;;;18.29;100.00;97520.97;5033330;28;19912;-76
2022/08/29 04:22:40;;;;;;;;;;;;;;;18.28;100.00;97511.97;5033255;28;20023;-76
2022/08/29 04:25:07;;;;;;;;;;;;;;;18.26;100.00;97510.41;5050003;28;20360;-77
2022/08/29 04:27:35;;;;;;;;;;;;;;;18.31;100.00;97505.41;5033074;28;19919;-76
2022/08/29 04:30:01;;;;;;;;;;;;;;;18.40;100.00;97512.69;5033286;28;20376;-76
2022/08/29 04:32:26;;;;;;;;;;;;;;;18.32;100.00;97507.13;5033262;28;19920;-76
2022/08/29 04:34:54;;;;;;;;;;;;;;;18.41;100.00;97514.41;5032849;28;19966;-76
2022/08/29 04:37:20;;;;;;;;;;;;;;;18.42;100.00;97513.41;5033198;28;19913;-77
2022/08/29 04:39:45;;;;;;;;;;;;;;;18.49;100.00;97517.25;5033105;28;19919;-77
2022/08/29 04:42:12;;;;;;;;;;;;;;;18.64;100.00;97509.56;5033050;28;20414;-76
2022/08/29 04:44:38;;;;;;;;;;;;;;;18.73;100.00;97520.38;5051270;28;19967;-77
2022/08/29 04:47:03;;;;;;;;;;;;;;;18.84;100.00;97522.06;5035272;28;19917;-77
2022/08/29 04:49:29;;;;;;;;;;;;;;;18.92;100.00;97528.44;5033578;28;19913;-76
2022/08/29 04:51:54;;;;;;;;;;;;;;;19.04;100.00;97529.09;5036706;28;19940;-78
2022/08/29 04:54:19;;;;;;;;;;;;;;;19.16;100.00;97532.53;5053634;28;19920;-76
2022/08/29 04:56:45;;;;;;;;;;;;;;;19.29;100.00;97533.00;5035119;28;19916;-76
2022/08/29 04:59:10;;;;;;;;;;;;;;;19.36;100.00;97536.84;5053240;28;20380;-76
2022/08/29 05:01:35;;;;;;;;;;;;;;;19.39;100.00;97533.84;5053398;28;19920;-76
2022/08/29 05:04:01;;;;;;;;;;;;;;;19.50;100.00;97533.69;5053091;28;19916;-77
2022/08/29 05:06:27;;;;;;;;;;;;;;;19.66;100.00;97536.56;5036704;28;19913;-75
2022/08/29 05:08:52;;;;;;;;;;;;;;;19.74;100.00;97536.69;5036327;28;19922;-76
2022/08/29 05:11:18;;;;;;;;;;;;;;;19.85;100.00;97538.31;5036388;28;19983;-77
2022/08/29 05:13:44;;;;;;;;;;;;;;;19.94;100.00;97538.25;5034272;28;19909;-77
2022/08/29 05:16:10;;;;;;;;;;;;;;;20.10;100.00;97542.16;5032984;28;20007;-77
2022/08/29 05:18:37;;;;;;;;;;;;;;;20.15;100.00;97542.56;5036337;28;19916;-77
2022/08/29 05:21:03;;;;;;;;;;;;;;;20.35;100.00;97536.84;5036117;28;19917;-78
2022/08/29 05:23:29;;;;;;;;;;;;;;;20.50;100.00;97538.00;5053163;28;20002;-78
2022/08/29 05:25:58;;;;;;;;;;;;;;;20.70;100.00;97541.41;5036201;28;20053;-77
2022/08/29 05:28:24;;;;;;;;;;;;;;;21.01;100.00;97537.19;5032684;28;19971;-78
2022/08/29 05:30:49;;;;;;;;;;;;;;;21.19;100.00;97531.75;5035889;28;19979;-77
2022/08/29 05:33:15;;;;;;;;;;;;;;;21.80;100.00;97534.22;5034521;28;19955;-77
2022/08/29 05:35:41;;;;;;;;;;;;;;;23.28;92.88;97543.22;5036237;28;19917;-77
2022/08/29 05:38:06;;;;;;;;;;;;;;;24.65;83.17;97532.50;5035697;28;20007;-78
2022/08/29 05:40:32;;;;;;;;;;;;;;;25.42;76.31;97503.00;5052789;28;20372;-77
2022/08/29 05:42:57;;;;;;;;;;;;;;;26.23;72.94;97505.63;5052330;28;19909;-77
2022/08/29 05:45:23;;;;;;;;;;;;;;;26.70;69.72;97490.47;5036215;28;20011;-78
2022/08/29 05:47:49;;;;;;;;;;;;;;;27.58;66.21;97482.50;5035679;28;19909;-78
2022/08/29 05:50:15;;;;;;;;;;;;;;;28.21;63.39;97467.53;5052141;28;20010;-79
2022/08/29 05:52:41;;;;;;;;;;;;;;;28.76;60.72;97458.16;5035816;28;19912;-78
2022/08/29 05:55:06;;;;;;;;;;;;;;;28.63;60.10;97451.75;5035426;28;19913;-80
2022/08/29 05:57:32;;;;;;;;;;;;;;;29.00;59.26;97446.50;5051460;28;19966;-78
2022/08/29 05:59:57;;;;;;;;;;;;;;;29.42;57.70;97434.13;5035608;28;19920;-78
2022/08/29 06:02:23;;;;;;;;;;;;;;;30.03;56.53;97437.31;5035275;28;20328;-79
2022/08/29 06:04:49;;;;;;;;;;;;;;;31.05;53.09;97433.44;5052296;28;19912;-76
2022/08/29 06:07:14;;;;;;;;;;;;;;;31.26;51.90;97421.97;5035341;28;20068;-79
2022/08/29 06:09:40;;;;;;;;;;;;;;;32.03;50.32;97428.75;5035389;28;19974;-77
2022/08/29 06:12:06;;;;;;;;;;;;;;;32.24;48.93;97419.13;5052317;28;20383;-78
2022/08/29 06:14:31;;;;;;;;;;;;;;;30.90;51.02;97422.72;5051662;28;19959;-78
2022/08/29 06:16:57;;;;;;;;;;;;;;;30.68;51.87;97426.09;5035353;28;19920;-78
2022/08/29 06:19:22;;;;;;;;;;;;;;;30.20;53.17;97429.38;5035050;28;20091;-78
2022/08/29 06:21:48;;;;;;;;;;;;;;;30.36;52.67;97437.13;5052236;28;19939;-78
2022/08/29 06:24:13;;;;;;;;;;;;;;;31.00;51.46;97430.53;5032157;28;19913;-79
2022/08/29 06:26:39;;;;;;;;;;;;;;;32.44;48.38;97434.38;5034195;28;20030;-78
2022/08/29 06:29:05;;;;;;;;;;;;;;;32.05;49.03;97430.25;5051717;28;19952;-78
2022/08/29 06:31:30;;;;;;;;;;;;;;;30.96;51.73;97432.03;5034747;28;19912;-78
2022/08/29 06:33:56;;;;;;;;;;;;;;;29.96;53.84;97441.19;5051437;28;20344;-79
2022/08/29 06:36:24;;;;;;;;;;;;;;;29.59;55.35;97435.34;5032696;28;19932;-78
2022/08/29 06:38:49;;;;;;;;;;;;;;;29.31;55.81;97442.22;5031406;28;19916;-78
2022/08/29 06:41:15;;;;;;;;;;;;;;;30.76;52.82;97447.94;5034689;28;19913;-79
2022/08/29 06:43:41;;;;;;;;;;;;;;;32.08;49.17;97437.25;5034361;28;20413;-78
2022/08/29 06:46:07;;;;;;;;;;;;;;;33.64;45.11;97427.44;5031305;28;19984;-77
2022/08/29 06:48:32;;;;;;;;;;;;;;;34.37;43.37;97429.53;5034456;28;19917;-78
2022/08/29 06:51:01;;;;;;;;;;;;;;;34.16;43.07;97417.19;5052601;28;19913;-77
2022/08/29 06:53:27;;;;;;;;;;;;;;;32.72;45.76;97425.44;5034172;28;19917;-78
2022/08/29 06:55:52;;;;;;;;;;;;;;;31.56;47.96;97435.94;5034394;28;19960;-78
2022/08/29 06:58:18;;;;;;;;;;;;;;;31.85;47.96;97445.38;5034222;28;19967;-79
2022/08/29 07:00:44;;;;;;;;;;;;;;;33.62;43.77;97439.88;5033102;28;19917;-78
2022/08/29 07:03:09;;;;;;;;;;;;;;;34.51;42.01;97430.94;5034345;28;19912;-78
2022/08/29 07:05:35;;;;;;;;;;;;;;;35.20;40.35;97428.81;5033954;28;19913;-77
2022/08/29 07:08:03;;;;;;;;;;;;;;;35.37;39.42;97429.66;5030985;28;19913;-76
2022/08/29 07:10:29;;;;;;;;;;;;;;;35.78;38.86;97429.16;5050790;28;19946;-79
2022/08/29 07:12:54;;;;;;;;;;;;;;;36.42;38.06;97437.78;5050814;28;19912;-78
2022/08/29 07:15:20;;;;;;;;;;;;;;;36.77;37.13;97438.19;5033647;28;19923;-79
2022/08/29 07:17:46;;;;;;;;;;;;;;;36.66;37.43;97436.41;5033939;28;19919;-77
2022/08/29 07:20:11;;;;;;;;;;;;;;;37.71;34.96;97423.63;5050680;28;20140;-77
2022/08/29 07:22:37;;;;;;;;;;;;;;;38.32;33.97;97428.38;5034208;28;19916;-80
2022/08/29 07:25:02;;;;;;;;;;;;;;;38.32;34.45;97435.94;5034379;28;19994;-75
2022/08/29 07:27:30;;;;;;;;;;;;;;;39.00;32.93;97427.19;5033639;28;19928;-77
2022/08/29 07:29:56;;;;;;;;;;;;;;;39.42;33.30;97443.69;5033699;28;20012;-78
2022/08/29 07:32:21;;;;;;;;;;;;;;;39.65;32.68;97431.06;5051898;28;19955;-78
2022/08/29 07:34:46;;;;;;;;;;;;;;;39.39;32.79;97437.81;5033377;28;19978;-77
2022/08/29 07:37:12;;;;;;;;;;;;;;;39.92;32.04;97433.53;5033746;28;19924;-78
2022/08/29 07:39:37;;;;;;;;;;;;;;;39.79;31.80;97429.38;5033449;28;19916;-77
2022/08/29 07:42:03;;;;;;;;;;;;;;;38.28;33.75;97432.84;5033273;28;19991;-78
2022/08/29 07:44:29;;;;;;;;;;;;;;;39.36;32.27;97447.63;5033378;28;19966;-78
2022/08/29 07:46:55;;;;;;;;;;;;;;;39.10;32.66;97439.50;5050125;28;20324;-79
2022/08/29 07:49:20;;;;;;;;;;;;;;;39.58;33.06;97438.91;5050388;28;19967;-79
2022/08/29 07:51:46;;;;;;;;;;;;;;;39.84;32.21;97436.94;5032265;28;19909;-78
2022/08/29 07:54:15;;;;;;;;;;;;;;;39.72;32.61;97445.63;5033471;28;19923;-77
2022/08/29 07:56:40;;;;;;;;;;;;;;;39.40;32.44;97433.91;5033577;28;19917;-77
2022/08/29 07:59:06;;;;;;;;;;;;;;;39.77;31.80;97448.44;5033352;28;19934;-78
2022/08/29 08:01:31;;;;;;;;;;;;;;;39.93;32.48;97440.81;5033285;28;20081;-80
2022/08/29 08:03:57;;;;;;;;;;;;;;;39.41;32.58;97435.59;5033199;28;20328;-78
2022/08/29 08:06:23;;;;;;;;;;;;;;;38.58;33.29;97439.69;5049976;28;19913;-78
2022/08/29 08:08:48;;;;;;;;;;;;;;;38.38;34.03;97434.84;5032625;28;20391;-77
2022/08/29 08:11:14;;;;;;;;;;;;;;;37.29;35.40;97451.47;5029840;28;19913;-79
2022/08/29 08:13:39;;;;;;;;;;;;;;;38.26;34.39;97459.38;5049731;28;19919;-78
2022/08/29 08:16:06;;;;;;;;;;;;;;;37.17;35.49;97446.09;5032584;28;19917;-78
2022/08/29 08:18:33;;;;;;;;;;;;;;;36.95;36.22;97459.25;5032947;28;19970;-78
2022/08/29 08:20:58;;;;;;;;;;;;;;;37.15;35.40;97455.84;5032991;28;19912;-79
2022/08/29 08:23:24;;;;;;;;;;;;;;;38.43;34.00;97454.44;5049750;28;19917;-79
2022/08/29 08:25:49;;;;;;;;;;;;;;;38.33;34.09;97466.41;5049243;28;19912;-79
2022/08/29 08:28:17;;;;;;;;;;;;;;;39.71;32.31;97460.78;5033016;28;19919;-79
2022/08/29 08:30:42;;;;;;;;;;;;;;;39.69;32.30;97446.19;5033091;28;19939;-80
2022/08/29 08:33:08;;;;;;;;;;;;;;;39.90;31.75;97438.59;5032358;28;20380;-79
2022/08/29 08:35:34;;;;;;;;;;;;;;;40.22;31.88;97441.84;5033060;28;19959;-78
2022/08/29 08:38:00;;;;;;;;;;;;;;;40.30;31.58;97454.44;5049594;28;20364;-77
2022/08/29 08:40:27;;;;;;;;;;;;;;;39.57;32.59;97431.63;5033010;28;19920;-79
2022/08/29 08:42:59;;;;;;;;;;;;;;;40.03;32.21;97441.63;5049486;28;19923;-78
2022/08/29 08:45:26;;;;;;;;;;;;;;;38.19;34.39;97426.09;5033272;28;20019;-78
2022/08/29 08:47:59;;;;;;;;;;;;;;;38.86;33.46;97442.81;5032653;28;20387;-78
2022/08/29 08:50:40;;;;;;;;;;;;;;;39.92;31.96;97441.94;5033352;28;20304;-79
2022/08/29 08:53:09;;;;;;;;;;;;;;;41.03;31.03;97442.28;5050591;28;19920;-79
2022/08/29 08:55:46;;;;;;;;;;;;;;;41.42;30.54;97431.00;5032734;28;19935;-78
2022/08/29 08:58:14;;;;;;;;;;;;;;;40.74;31.45;97430.09;5032775;28;19912;-79
2022/08/29 09:00:44;;;;;;;;;;;;;;;41.53;30.46;97431.75;5049706;28;20364;-79
2022/08/29 09:03:16;;;;;;;;;;;;;;;42.62;28.93;97424.31;5032772;28;20369;-78
2022/08/29 09:06:09;;;;;;;;;;;;;;;41.80;30.01;97414.34;5049571;28;19913;-78
2022/08/29 09:08:39;;;;;;;;;;;;;;;40.00;31.51;97402.94;5044312;28;19916;-77
2022/08/29 09:11:20;;;;;;;;;;;;;;;39.91;32.32;97421.47;5048953;28;19912;-78
2022/08/29 09:14:07;;;;;;;;;;;;;;;39.48;32.47;97422.13;5032527;28;20368;-78
2022/08/29 09:16:35;;;;;;;;;;;;;;;38.48;33.61;97407.78;5045215;28;19924;-78
2022/08/29 09:19:04;;;;;;;;;;;;;;;38.30;33.70;97418.59;5049025;28;20380;-78
2022/08/29 09:21:30;;;;;;;;;;;;;;;37.72;34.54;97402.94;5032727;28;19913;-78
2022/08/29 09:23:56;;;;;;;;;;;;;;;36.86;36.02;97419.00;5049241;28;19962;-79
2022/08/29 09:26:22;;;;;;;;;;;;;;;36.57;37.15;97429.63;5032440;28;19970;-79
2022/08/29 09:28:48;;;;;;;;;;;;;;;36.53;36.52;97433.19;5032673;28;19913;-79
2022/08/29 09:31:27;;;;;;;;;;;;;;;36.02;36.58;97418.63;5049833;28;19913;-79
2022/08/29 09:33:54;;;;;;;;;;;;;;;35.64;38.48;97432.59;5052517;28;19986;-79
2022/08/29 09:36:52;;;;;;;;;;;;;;;35.54;37.67;97424.91;5035672;28;20362;-78
2022/08/29 09:39:19;;;;;;;;;;;;;;;36.55;36.83;97448.53;5030828;28;19913;-78
2022/08/29 09:41:46;;;;;;;;;;;;;;;36.91;36.10;97435.81;5035959;28;19913;-79
2022/08/29 09:44:13;;;;;;;;;;;;;;;37.24;35.50;97441.13;5035633;28;20065;-77
2022/08/29 09:46:39;;;;;;;;;;;;;;;37.91;34.26;97432.97;5035804;28;19916;-79
2022/08/29 09:49:04;;;;;;;;;;;;;;;39.06;33.24;97430.81;5033474;28;20398;-79
2022/08/29 09:51:40;;;;;;;;;;;;;;;38.79;32.87;97414.28;5052471;28;19912;-78
2022/08/29 09:54:14;;;;;;;;;;;;;;;39.92;30.89;97417.56;5052048;28;19913;-79
2022/08/29 09:56:48;;;;;;;;;;;;;;;41.10;29.40;97409.06;5046637;28;19917;-79
2022/08/29 09:59:19;;;;;;;;;;;;;;;41.47;28.99;97397.22;5035453;28;19916;-78
2022/08/29 10:01:45;;;;;;;;;;;;;;;41.48;28.25;97395.25;5052038;28;19912;-79
2022/08/29 10:04:10;;;;;;;;;;;;;;;42.59;27.36;97389.16;5035171;28;19912;-80
2022/08/29 10:06:39;;;;;;;;;;;;;;;42.97;27.29;97390.00;5052163;28;19958;-79
2022/08/29 10:09:09;;;;;;;;;;;;;;;42.14;28.38;97370.91;5035528;28;20375;-79
2022/08/29 10:11:44;;;;;;;;;;;;;;;40.65;30.28;97381.31;5032168;28;19921;-79
2022/08/29 10:14:14;;;;;;;;;;;;;;;40.58;29.48;97375.19;5035243;28;19961;-79
2022/08/29 10:16:47;;;;;;;;;;;;;;;40.58;29.43;97367.63;5031991;28;19917;-79
2022/08/29 10:19:33;;;;;;;;;;;;;;;42.20;28.12;97376.47;5035381;28;19912;-79
2022/08/29 10:22:04;;;;;;;;;;;;;;;43.74;26.61;97359.31;5051748;28;19913;-80
2022/08/29 10:24:33;;;;;;;;;;;;;;;44.88;25.44;97361.06;5051464;28;20391;-79
2022/08/29 10:27:03;;;;;;;;;;;;;;;44.41;25.26;97351.13;5035140;28;19935;-79
2022/08/29 10:29:37;;;;;;;;;;;;;;;42.80;26.99;97333.34;5051639;28;19999;-79
2022/08/29 10:32:03;;;;;;;;;;;;;;;43.20;26.51;97335.50;5051635;28;20007;-80
2022/08/29 10:34:47;;;;;;;;;;;;;;;43.29;27.04;97346.88;5051387;28;19955;-80
2022/08/29 10:37:14;;;;;;;;;;;;;;;41.84;28.12;97329.09;5051329;28;19924;-80
2022/08/29 10:39:45;;;;;;;;;;;;;;;42.35;28.42;97348.13;5031364;28;19913;-80
2022/08/29 10:42:12;;;;;;;;;;;;;;;42.51;28.21;97355.22;5048394;28;19913;-81
2022/08/29 10:44:44;;;;;;;;;;;;;;;43.73;26.86;97352.00;5031484;28;19913;-80
2022/08/29 10:47:15;;;;;;;;;;;;;;;44.49;25.82;97341.91;5050724;28;19908;-81
2022/08/29 10:49:47;;;;;;;;;;;;;;;43.44;26.74;97315.63;5051090;28;19920;-80
2022/08/29 10:52:25;;;;;;;;;;;;;;;45.51;24.57;97335.41;5031813;28;19963;-80
2022/08/29 10:55:09;;;;;;;;;;;;;;;45.85;24.18;97306.44;5051025;28;19970;-80
2022/08/29 10:57:40;;;;;;;;;;;;;;;44.87;25.28;97298.06;5051524;28;19946;-78
2022/08/29 11:00:06;;;;;;;;;;;;;;;44.13;25.95;97305.19;5053555;28;19909;-83
2022/08/29 11:02:42;;;;;;;;;;;;;;;45.23;24.96;97324.25;5054881;28;19920;-85
2022/08/29 11:05:12;;;;;;;;;;;;;;;45.30;24.63;97301.22;5037327;28;19913;-86
2022/08/29 11:08:02;;;;;;;;;;;;;;;44.70;25.66;97314.91;5029944;28;19948;-85
2022/08/29 11:10:39;;;;;;;;;;;;;;;44.09;25.59;97293.69;5046249;28;19921;-85
2022/08/29 11:13:24;;;;;;;;;;;;;;;44.48;25.75;97304.41;5035842;28;19913;-84
2022/08/29 11:16:06;;;;;;;;;;;;;;;43.93;25.71;97283.09;5053317;28;19917;-85
2022/08/29 11:18:34;;;;;;;;;;;;;;;44.35;25.72;97277.03;5036893;28;19919;-85
2022/08/29 11:21:03;;;;;;;;;;;;;;;43.56;26.17;97273.66;5053711;28;19924;-86
2022/08/29 11:23:39;;;;;;;;;;;;;;;43.63;26.37;97270.44;5037391;28;19974;-85
2022/08/29 11:26:11;;;;;;;;;;;;;;;41.04;28.90;97246.56;5036693;28;20022;-86
2022/08/29 11:28:57;;;;;;;;;;;;;;;39.93;30.62;97267.03;5036517;28;20342;-84
2022/08/29 11:31:46;;;;;;;;;;;;;;;38.85;32.24;97256.47;5050248;28;19917;-85
2022/08/29 11:34:17;;;;;;;;;;;;;;;37.73;33.87;97259.38;5045096;28;19927;-85
2022/08/29 11:36:53;;;;;;;;;;;;;;;36.93;35.05;97271.78;5052814;28;19970;-85
2022/08/29 11:39:20;;;;;;;;;;;;;;;35.85;36.39;97286.94;5035853;28;19920;-83
2022/08/29 11:41:46;;;;;;;;;;;;;;;35.88;36.54;97287.25;5051321;28;20292;-84
2022/08/29 11:44:28;;;;;;;;;;;;;;;35.55;37.15;97292.13;5035817;28;20008;-84
2022/08/29 11:46:54;;;;;;;;;;;;;;;35.56;36.97;97296.59;5035585;28;19951;-83
2022/08/29 11:49:23;;;;;;;;;;;;;;;35.49;37.13;97302.38;5036416;28;19935;-85
2022/08/29 11:51:50;;;;;;;;;;;;;;;35.27;38.05;97295.94;5036196;28;19920;-85
2022/08/29 11:54:27;;;;;;;;;;;;;;;35.05;38.65;97295.88;5035739;28;19935;-84
2022/08/29 11:56:58;;;;;;;;;;;;;;;34.77;38.71;97291.28;5052245;28;19948;-84
2022/08/29 11:59:43;;;;;;;;;;;;;;;33.93;40.44;97288.69;5052705;28;20384;-84
2022/08/29 12:02:09;;;;;;;;;;;;;;;33.83;41.20;97300.44;5041754;28;19917;-84
2022/08/29 12:04:51;;;;;;;;;;;;;;;33.58;40.63;97297.13;5051979;28;19934;-85
2022/08/29 12:07:17;;;;;;;;;;;;;;;32.97;41.98;97311.56;5036238;28;19913;-83
2022/08/29 12:09:47;;;;;;;;;;;;;;;33.01;42.67;97318.31;5036276;28;19981;-84
2022/08/29 12:12:14;;;;;;;;;;;;;;;32.92;42.80;97322.53;5053369;28;19916;-83
2022/08/29 12:14:50;;;;;;;;;;;;;;;32.78;43.04;97326.63;5035940;28;19912;-82
2022/08/29 12:17:23;;;;;;;;;;;;;;;32.50;44.39;97330.91;5036302;28;19916;-84
2022/08/29 12:19:53;;;;;;;;;;;;;;;32.35;43.77;97325.00;5054118;28;19913;-83
2022/08/29 12:22:37;;;;;;;;;;;;;;;32.22;44.36;97326.06;5036879;28;20281;-84
2022/08/29 12:25:22;;;;;;;;;;;;;;;31.78;45.29;97334.75;5052961;28;19912;-84
2022/08/29 12:28:01;;;;;;;;;;;;;;;31.88;45.18;97334.19;5037134;28;20347;-84
2022/08/29 12:30:27;;;;;;;;;;;;;;;31.83;45.81;97334.06;5053524;28;19924;-84
2022/08/29 12:32:58;;;;;;;;;;;;;;;31.66;46.58;97337.47;5036945;28;19916;-84
2022/08/29 12:35:47;;;;;;;;;;;;;;;31.72;45.53;97334.88;5036996;28;19921;-84
2022/08/29 12:38:12;;;;;;;;;;;;;;;31.70;45.65;97332.31;5044422;28;19937;-84
2022/08/29 12:40:44;;;;;;;;;;;;;;;31.59;46.25;97322.06;5053323;28;19904;-84
2022/08/29 12:43:24;;;;;;;;;;;;;;;31.48;46.44;97317.25;5037846;28;19913;-83
2022/08/29 12:45:50;;;;;;;;;;;;;;;31.40;46.66;97312.91;5032002;28;19913;-85
2022/08/29 12:48:23;;;;;;;;;;;;;;;31.15;47.24;97306.63;5036541;28;20395;-83